createdAt,value
2018-01-08T00:01:23.673Z,67.37
2018-01-08T00:03:52.082Z,72.40
2018-01-08T00:06:20.450Z,67.18
2018-01-08T00:08:48.817Z,77.50
2018-01-08T00:11:17.477Z,67.20
2018-01-08T00:13:45.850Z,69.62
2018-01-08T00:16:14.217Z,72.85
2018-01-08T00:18:42.613Z,72.43
2018-01-08T00:21:11.001Z,67.55
2018-01-08T00:23:39.368Z,77.12
2018-01-08T00:26:08.003Z,67.43
2018-01-08T00:28:37.037Z,82.28
2018-01-08T00:31:05.488Z,72.22
2018-01-08T00:33:34.940Z,67.03
2018-01-08T00:36:03.534Z,68.30
2018-01-08T00:38:31.908Z,69.07
2018-01-08T00:41:00.305Z,68.72
2018-01-08T00:43:28.701Z,76.43
2018-01-08T00:45:57.139Z,64.37
2018-01-08T00:48:25.621Z,69.75
2018-01-08T00:51:07.509Z,70.68
2018-01-08T00:53:37.617Z,71.65
2018-01-08T00:56:05.987Z,65.43
2018-01-08T00:58:34.450Z,73.78
2018-01-08T01:01:03.638Z,71.12
2018-01-08T01:03:32.773Z,74.43
2018-01-08T01:06:01.135Z,68.90
2018-01-08T01:08:29.533Z,76.78
2018-01-08T01:10:57.925Z,75.60
2018-01-08T01:13:26.289Z,70.12
2018-01-08T01:15:54.693Z,64.30
2018-01-08T01:18:23.062Z,65.47
2018-01-08T01:20:51.426Z,70.28
2018-01-08T01:23:19.822Z,70.62
2018-01-08T01:25:48.181Z,73.68
2018-01-08T01:28:16.563Z,72.12
2018-01-08T01:30:45.110Z,63.33
2018-01-08T01:33:14.254Z,63.25
2018-01-08T01:35:42.651Z,60.08
2018-01-08T01:38:11.243Z,66.12
2018-01-08T01:40:39.637Z,74.15
2018-01-08T01:43:08.832Z,67.95
2018-01-08T01:45:38.014Z,68.50
2018-01-08T01:48:06.387Z,70.35
2018-01-08T01:50:34.763Z,56.20
2018-01-08T01:53:03.158Z,66.93
2018-01-08T01:55:31.530Z,55.78
2018-01-08T01:57:59.897Z,65.12
2018-01-08T02:00:28.313Z,61.10
2018-01-08T02:02:56.688Z,57.50
2018-01-08T02:05:25.830Z,67.28
2018-01-08T02:07:54.233Z,62.90
2018-01-08T02:10:22.601Z,74.90
2018-01-08T02:12:50.965Z,58.87
2018-01-08T02:15:19.373Z,59.67
2018-01-08T02:17:48.027Z,62.75
2018-01-08T02:20:16.564Z,62.80
2018-01-08T02:22:45.719Z,63.00
2018-01-08T02:25:14.085Z,62.80
2018-01-08T02:27:42.459Z,57.88
2018-01-08T02:30:10.858Z,56.37
2018-01-08T02:32:39.226Z,61.72
2018-01-08T02:35:07.591Z,60.05
2018-01-08T02:37:35.981Z,60.95
2018-01-08T02:40:04.363Z,59.03
2018-01-08T02:42:32.730Z,60.60
2018-01-08T02:45:01.135Z,59.05
2018-01-08T02:47:29.503Z,62.25
2018-01-08T02:49:57.901Z,58.60
2018-01-08T02:52:26.307Z,58.40
2018-01-08T02:54:55.438Z,61.90
2018-01-08T02:57:24.473Z,60.65
2018-01-08T02:59:52.891Z,60.85
2018-01-08T03:02:21.257Z,58.55
2018-01-08T03:04:50.590Z,61.20
2018-01-08T03:07:19.006Z,61.60
2018-01-08T03:09:47.378Z,60.78
2018-01-08T03:12:15.746Z,61.50
2018-01-08T03:14:44.150Z,55.97
2018-01-08T03:17:13.282Z,59.28
2018-01-08T03:19:41.670Z,55.80
2018-01-08T03:22:10.061Z,54.50
2018-01-08T03:24:38.425Z,59.22
2018-01-08T03:27:06.792Z,53.75
2018-01-08T03:29:35.936Z,56.47
2018-01-08T03:32:05.106Z,59.05
2018-01-08T03:34:33.488Z,53.17
2018-01-08T03:37:01.886Z,61.60
2018-01-08T03:39:30.253Z,56.15
2018-01-08T03:41:58.623Z,60.67
2018-01-08T03:44:27.013Z,55.08
2018-01-08T03:46:55.371Z,54.00
2018-01-08T03:49:23.749Z,52.25
2018-01-08T03:51:52.168Z,52.58
2018-01-08T03:54:21.297Z,49.55
2018-01-08T03:56:50.433Z,54.67
2018-01-08T03:59:18.833Z,50.60
2018-01-08T04:01:47.201Z,49.47
2018-01-08T04:04:15.565Z,50.20
2018-01-08T04:06:44.173Z,49.22
2018-01-08T04:09:12.560Z,55.50
2018-01-08T04:11:41.481Z,52.10
2018-01-08T04:14:10.658Z,42.90
2018-01-08T04:16:39.023Z,52.42
2018-01-08T04:19:07.386Z,48.30
2018-01-08T04:21:35.778Z,51.17
2018-01-08T04:24:04.157Z,42.30
2018-01-08T04:26:32.521Z,48.25
2018-01-08T04:29:00.915Z,48.22
2018-01-08T04:31:29.799Z,56.53
2018-01-08T04:33:58.687Z,47.40
2018-01-08T04:36:29.768Z,54.38
2018-01-08T04:38:59.278Z,44.85
2018-01-08T04:41:28.085Z,48.45
2018-01-08T04:43:56.974Z,49.45
2018-01-08T04:46:25.979Z,54.67
2018-01-08T04:48:55.352Z,53.87
2018-01-08T04:51:24.159Z,45.90
2018-01-08T04:53:53.305Z,51.22
2018-01-08T04:56:21.673Z,56.63
2018-01-08T04:58:50.426Z,53.50
2018-01-08T05:01:18.801Z,52.65
2018-01-08T05:03:47.166Z,57.38
2018-01-08T05:06:15.582Z,50.47
2018-01-08T05:08:44.151Z,63.40
2018-01-08T05:11:12.521Z,54.67
2018-01-08T05:13:40.951Z,49.88
2018-01-08T05:16:10.089Z,49.45
2018-01-08T05:18:38.454Z,50.95
2018-01-08T05:21:06.875Z,56.88
2018-01-08T05:23:36.749Z,58.08
2018-01-08T05:26:05.114Z,53.42
2018-01-08T05:28:34.281Z,48.70
2018-01-08T05:31:02.662Z,59.08
2018-01-08T05:33:31.034Z,44.28
2018-01-08T05:35:59.497Z,52.45
2018-01-08T05:38:27.849Z,53.78
2018-01-08T05:40:56.226Z,60.78
2018-01-08T05:43:24.648Z,59.72
2018-01-08T05:45:53.092Z,61.83
2018-01-08T05:48:21.454Z,60.72
2018-01-08T05:50:49.865Z,52.90
2018-01-08T05:53:18.239Z,62.60
2018-01-08T05:55:46.600Z,56.95
2018-01-08T05:58:15.209Z,58.28
2018-01-08T06:00:43.579Z,68.25
2018-01-08T06:03:11.965Z,54.00
2018-01-08T06:05:40.385Z,45.95
2018-01-08T06:08:09.541Z,58.05
2018-01-08T06:10:38.339Z,49.97
2018-01-08T06:13:07.009Z,52.55
2018-01-08T06:15:35.377Z,56.28
2018-01-08T06:18:03.745Z,56.47
2018-01-08T06:20:32.153Z,58.78
2018-01-08T06:23:00.525Z,57.40
2018-01-08T06:25:28.906Z,47.72
2018-01-08T06:27:57.570Z,52.62
2018-01-08T06:30:25.925Z,51.22
2018-01-08T06:32:55.065Z,52.88
2018-01-08T06:35:23.497Z,49.35
2018-01-08T06:37:52.642Z,51.55
2018-01-08T06:40:21.001Z,54.45
2018-01-08T06:42:49.420Z,46.00
2018-01-08T06:45:17.794Z,61.50
2018-01-08T06:47:54.661Z,53.25
2018-01-08T06:50:23.024Z,55.30
2018-01-08T06:52:51.394Z,70.43
2018-01-08T06:55:19.884Z,58.38
2018-01-08T06:57:48.254Z,57.45
2018-01-08T07:00:16.993Z,48.97
2018-01-08T07:02:45.386Z,53.50
2018-01-08T07:05:13.753Z,50.78
2018-01-08T07:07:42.881Z,55.85
2018-01-08T07:10:11.585Z,60.10
2018-01-08T07:12:40.069Z,51.00
2018-01-08T07:15:08.438Z,52.62
2018-01-08T07:17:36.843Z,50.15
2018-01-08T07:20:05.269Z,56.63
2018-01-08T07:22:33.631Z,52.20
2018-01-08T07:25:02.798Z,48.20
2018-01-08T07:27:31.178Z,51.33
2018-01-08T07:29:59.638Z,51.90
2018-01-08T07:32:28.041Z,53.60
2018-01-08T07:34:56.405Z,56.25
2018-01-08T07:37:24.773Z,50.50
2018-01-08T07:39:53.180Z,51.13
2018-01-08T07:42:21.562Z,53.42
2018-01-08T07:44:49.934Z,47.88
2018-01-08T07:47:18.339Z,47.22
2018-01-08T07:49:47.470Z,45.80
2018-01-08T07:52:15.842Z,56.92
2018-01-08T07:54:44.434Z,53.08
2018-01-08T07:57:12.794Z,53.50
2018-01-08T07:59:41.161Z,49.15
2018-01-08T08:02:10.333Z,56.00
2018-01-08T08:04:38.706Z,52.00
2018-01-08T08:07:07.080Z,58.15
2018-01-08T08:09:35.494Z,55.78
2018-01-08T08:12:04.639Z,57.08
2018-01-08T08:14:33.014Z,55.40
2018-01-08T08:17:01.444Z,50.50
2018-01-08T08:19:30.579Z,51.47
2018-01-08T08:21:58.941Z,49.45
2018-01-08T08:24:27.346Z,47.50
2018-01-08T08:26:55.714Z,54.28
2018-01-08T08:29:24.081Z,47.70
2018-01-08T08:31:52.506Z,53.80
2018-01-08T08:34:20.942Z,43.28
2018-01-08T08:36:49.306Z,47.00
2018-01-08T08:39:34.241Z,43.47
2018-01-08T08:42:03.355Z,41.08
2018-01-08T08:44:32.526Z,42.13
2018-01-08T08:47:00.894Z,42.15
2018-01-08T08:49:29.261Z,50.92
2018-01-08T08:51:57.654Z,41.13
2018-01-08T08:54:26.103Z,43.10
2018-01-08T08:56:54.470Z,40.10
2018-01-08T08:59:22.882Z,45.67
2018-01-08T09:01:51.257Z,41.72
2018-01-08T09:04:19.622Z,41.03
2018-01-08T09:06:48.018Z,35.47
2018-01-08T09:09:16.375Z,39.03
2018-01-08T09:11:44.734Z,40.03
2018-01-08T09:14:13.126Z,35.67
2018-01-08T09:16:41.665Z,41.88
2018-01-08T09:19:10.789Z,42.45
2018-01-08T09:21:39.194Z,38.08
2018-01-08T09:24:07.562Z,42.55
2018-01-08T09:26:35.926Z,38.85
2018-01-08T09:29:04.319Z,37.20
2018-01-08T09:31:32.689Z,38.83
2018-01-08T09:34:01.111Z,36.65
2018-01-08T09:36:29.512Z,45.83
2018-01-08T09:38:58.637Z,39.40
2018-01-08T09:41:27.010Z,40.40
2018-01-08T09:43:55.409Z,39.67
2018-01-08T09:46:23.783Z,36.13
2018-01-08T09:48:52.147Z,35.95
2018-01-08T09:51:20.546Z,35.25
2018-01-08T09:53:48.913Z,42.15
2018-01-08T09:56:17.281Z,34.80
2018-01-08T09:58:45.787Z,38.17
2018-01-08T10:01:14.150Z,44.47
2018-01-08T10:04:00.360Z,33.33
2018-01-08T10:06:46.590Z,41.20
2018-01-08T10:09:32.957Z,32.17
2018-01-08T10:12:19.209Z,38.30
2018-01-08T10:15:06.272Z,33.17
2018-01-08T10:17:53.035Z,37.38
2018-01-08T10:20:22.214Z,38.22
2018-01-08T10:22:51.364Z,35.13
2018-01-08T10:25:19.856Z,31.45
2018-01-08T10:27:48.273Z,34.80
2018-01-08T10:30:16.713Z,40.58
2018-01-08T10:32:45.074Z,40.88
2018-01-08T10:35:13.479Z,36.85
2018-01-08T10:37:41.850Z,33.55
2018-01-08T10:40:10.233Z,32.58
2018-01-08T10:42:44.075Z,31.42
2018-01-08T10:45:17.839Z,35.70
2018-01-08T10:47:51.852Z,34.00
2018-01-08T10:50:25.694Z,33.90
2018-01-08T10:55:56.077Z,31.27
2018-01-08T10:58:24.480Z,35.03
2018-01-08T11:04:00.625Z,42.42
2018-01-08T11:06:29.004Z,41.40
2018-01-08T11:08:57.480Z,30.12
2018-01-08T11:11:25.881Z,30.55
2018-01-08T11:13:54.249Z,26.05
2018-01-08T11:16:22.625Z,28.83
2018-01-08T11:18:51.229Z,28.20
2018-01-08T11:21:19.602Z,31.62
2018-01-08T11:23:48.026Z,27.20
2018-01-08T11:26:16.417Z,25.35
2018-01-08T11:28:44.783Z,31.87
2018-01-08T11:31:13.152Z,25.62
2018-01-08T11:33:41.557Z,29.65
2018-01-08T11:36:10.697Z,32.28
2018-01-08T11:38:39.134Z,27.37
2018-01-08T11:41:08.313Z,33.53
2018-01-08T11:43:36.710Z,28.98
2018-01-08T11:46:05.849Z,24.83
2018-01-08T11:48:34.253Z,27.48
2018-01-08T11:51:02.629Z,28.75
2018-01-08T11:53:30.991Z,33.40
2018-01-08T11:55:59.399Z,30.52
2018-01-08T11:58:27.770Z,27.98
2018-01-08T12:00:56.146Z,29.48
2018-01-08T12:03:24.702Z,31.05
2018-01-08T12:05:53.078Z,31.73
2018-01-08T12:08:21.444Z,23.02
2018-01-08T12:10:49.846Z,28.85
2018-01-08T12:13:18.219Z,29.70
2018-01-08T12:15:46.593Z,30.83
2018-01-08T12:18:14.989Z,28.52
2018-01-08T12:20:43.454Z,34.38
2018-01-08T12:23:11.825Z,29.15
2018-01-08T12:25:40.250Z,30.00
2018-01-08T12:28:08.610Z,30.75
2018-01-08T12:30:36.983Z,26.75
2018-01-08T12:33:05.456Z,31.90
2018-01-08T12:35:33.822Z,30.98
2018-01-08T12:38:02.202Z,32.03
2018-01-08T12:40:30.598Z,25.98
2018-01-08T12:42:58.978Z,27.85
2018-01-08T12:45:27.358Z,32.65
2018-01-08T12:47:56.031Z,27.42
2018-01-08T12:50:24.398Z,25.65
2018-01-08T12:52:52.771Z,26.23
2018-01-08T12:55:21.366Z,24.23
2018-01-08T12:57:49.740Z,31.85
2018-01-08T13:00:18.349Z,25.00
2018-01-08T13:02:46.746Z,30.27
2018-01-08T13:05:15.127Z,31.98
2018-01-08T13:07:43.575Z,25.90
2018-01-08T13:10:11.973Z,25.48
2018-01-08T13:12:40.350Z,27.62
2018-01-08T13:15:08.718Z,20.70
2018-01-08T13:17:37.109Z,21.90
2018-01-08T13:20:05.477Z,24.80
2018-01-08T13:22:33.849Z,25.83
2018-01-08T13:25:02.258Z,30.75
2018-01-08T13:27:30.625Z,28.92
2018-01-08T13:29:58.997Z,28.30
2018-01-08T13:32:27.433Z,29.40
2018-01-08T13:34:55.834Z,31.00
2018-01-08T13:37:24.210Z,27.15
2018-01-08T13:39:52.609Z,32.92
2018-01-08T13:42:20.998Z,26.00
2018-01-08T13:44:49.362Z,24.45
2018-01-08T13:47:17.798Z,25.88
2018-01-08T13:49:46.208Z,27.60
2018-01-08T13:52:14.580Z,28.23
2018-01-08T13:54:42.997Z,26.45
2018-01-08T13:57:11.370Z,30.33
2018-01-08T13:59:39.746Z,30.12
2018-01-08T14:02:09.823Z,25.70
2018-01-08T14:04:38.193Z,30.35
2018-01-08T14:07:08.127Z,28.33
2018-01-08T14:09:36.533Z,28.62
2018-01-08T14:12:04.926Z,29.77
2018-01-08T14:14:33.285Z,26.52
2018-01-08T14:17:01.713Z,26.05
2018-01-08T14:19:30.081Z,34.70
2018-01-08T14:21:59.220Z,30.42
2018-01-08T14:24:27.623Z,28.92
2018-01-08T14:26:55.983Z,26.65
2018-01-08T14:29:24.346Z,26.92
2018-01-08T14:31:52.746Z,28.50
2018-01-08T14:34:21.117Z,24.23
2018-01-08T14:36:49.478Z,28.60
2018-01-08T14:39:17.881Z,33.05
2018-01-08T14:41:46.246Z,33.80
2018-01-08T14:44:14.615Z,35.78
2018-01-08T14:46:43.012Z,28.20
2018-01-08T14:49:11.486Z,37.70
2018-01-08T14:51:39.866Z,39.08
2018-01-08T14:54:08.273Z,42.28
2018-01-08T14:56:36.632Z,29.52
2018-01-08T14:59:04.997Z,34.80
2018-01-08T15:01:33.713Z,26.60
2018-01-08T15:04:02.085Z,31.15
2018-01-08T15:06:30.504Z,30.27
2018-01-08T15:08:59.662Z,31.48
2018-01-08T15:11:28.910Z,29.73
2018-01-08T15:13:57.316Z,32.72
2018-01-08T15:16:25.713Z,27.42
2018-01-08T15:18:54.098Z,30.50
2018-01-08T15:21:22.703Z,30.42
2018-01-08T15:23:51.161Z,33.95
2018-01-08T15:26:19.526Z,31.60
2018-01-08T15:28:47.927Z,31.17
2018-01-08T15:31:16.346Z,35.45
2018-01-08T15:33:44.790Z,33.13
2018-01-08T15:36:13.158Z,35.97
2018-01-08T15:38:41.922Z,30.20
2018-01-08T15:41:10.281Z,34.35
2018-01-08T15:43:38.648Z,43.90
2018-01-08T15:46:07.246Z,26.95
2018-01-08T15:48:35.623Z,29.17
2018-01-08T15:51:04.037Z,23.40
2018-01-08T15:53:32.497Z,26.20
2018-01-08T15:56:00.879Z,30.37
2018-01-08T15:58:29.297Z,38.58
2018-01-08T16:00:57.701Z,27.87
2018-01-08T16:03:26.521Z,28.95
2018-01-08T16:05:55.104Z,27.23
2018-01-08T16:08:23.576Z,27.15
2018-01-08T16:10:51.939Z,33.40
2018-01-08T16:13:20.306Z,27.52
2018-01-08T16:15:48.705Z,34.00
2018-01-08T16:18:17.201Z,26.55
2018-01-08T16:20:45.786Z,19.83
2018-01-08T16:23:14.418Z,24.25
2018-01-08T16:25:43.553Z,26.12
2018-01-08T16:28:11.943Z,23.95
2018-01-08T16:30:40.346Z,24.70
2018-01-08T16:33:09.474Z,28.70
2018-01-08T16:35:38.628Z,29.80
2018-01-08T16:38:07.021Z,23.48
2018-01-08T16:40:35.385Z,29.10
2018-01-08T16:43:03.753Z,29.37
2018-01-08T16:45:32.142Z,26.08
2018-01-08T16:48:00.504Z,24.40
2018-01-08T16:50:28.865Z,24.45
2018-01-08T16:52:57.266Z,24.58
2018-01-08T16:55:25.633Z,27.75
2018-01-08T16:57:54.191Z,24.63
2018-01-08T17:00:22.948Z,28.55
2018-01-08T17:02:52.190Z,29.87
2018-01-08T17:05:20.570Z,29.85
2018-01-08T17:07:49.002Z,34.72
2018-01-08T17:10:17.449Z,27.60
2018-01-08T17:12:45.903Z,26.08
2018-01-08T17:15:14.690Z,24.98
2018-01-08T17:17:43.050Z,26.30
2018-01-08T17:20:12.187Z,27.90
2018-01-08T17:22:40.577Z,25.73
2018-01-08T17:25:09.049Z,27.83
2018-01-08T17:27:37.411Z,26.83
2018-01-08T17:30:06.720Z,28.08
2018-01-08T17:32:35.088Z,36.83
2018-01-08T17:35:03.449Z,25.42
2018-01-08T17:37:31.846Z,25.05
2018-01-08T17:40:00.210Z,24.70
2018-01-08T17:42:28.602Z,21.77
2018-01-08T17:44:57.000Z,20.85
2018-01-08T17:47:25.434Z,21.02
2018-01-08T17:49:54.566Z,22.35
2018-01-08T17:52:22.972Z,23.05
2018-01-08T17:54:51.407Z,27.87
2018-01-08T17:57:19.823Z,21.92
2018-01-08T17:59:48.205Z,26.35
2018-01-08T18:02:16.570Z,29.17
2018-01-08T18:04:44.937Z,22.83
2018-01-08T18:07:13.330Z,23.80
2018-01-08T18:09:41.693Z,24.45
2018-01-08T18:12:10.053Z,25.25
2018-01-08T18:14:38.460Z,23.00
2018-01-08T18:17:06.901Z,20.45
2018-01-08T18:19:35.244Z,28.33
2018-01-08T18:22:03.647Z,20.05
2018-01-08T18:24:32.797Z,28.05
2018-01-08T18:27:01.171Z,23.48
2018-01-08T18:29:29.581Z,27.75
2018-01-08T18:31:58.294Z,24.15
2018-01-08T18:34:26.694Z,26.25
2018-01-08T18:36:55.086Z,25.70
2018-01-08T18:39:23.475Z,23.08
2018-01-08T18:41:51.836Z,30.42
2018-01-08T18:44:20.342Z,23.67
2018-01-08T18:46:48.914Z,23.15
2018-01-08T18:49:17.532Z,24.77
2018-01-08T18:51:46.707Z,20.83
2018-01-08T18:54:15.090Z,22.73
2018-01-08T18:56:43.865Z,21.62
2018-01-08T18:59:19.006Z,20.10
2018-01-08T19:01:48.687Z,25.15
2018-01-08T19:04:20.307Z,23.67
2018-01-08T19:06:52.997Z,29.73
2018-01-08T19:09:21.522Z,22.92
2018-01-08T19:11:50.071Z,23.00
2018-01-08T19:14:18.438Z,23.17
2018-01-08T19:16:47.680Z,21.92
2018-01-08T19:19:16.109Z,23.75
2018-01-08T19:21:45.237Z,20.37
2018-01-08T19:24:13.749Z,25.65
2018-01-08T19:26:42.120Z,18.42
2018-01-08T19:29:10.512Z,23.08
2018-01-08T19:31:38.902Z,21.62
2018-01-08T19:34:07.274Z,21.45
2018-01-08T19:36:35.821Z,19.60
2018-01-08T19:39:04.287Z,20.80
2018-01-08T19:41:32.866Z,21.30
2018-01-08T19:44:01.401Z,23.92
2018-01-08T19:46:29.766Z,21.42
2018-01-08T19:48:58.329Z,21.45
2018-01-08T19:51:26.729Z,18.70
2018-01-08T19:53:55.090Z,22.02
2018-01-08T19:56:23.577Z,23.73
2018-01-08T19:58:52.058Z,22.15
2018-01-08T20:01:20.646Z,23.60
2018-01-08T20:03:49.069Z,25.12
2018-01-08T20:06:18.210Z,25.27
2018-01-08T20:08:46.592Z,20.45
2018-01-08T20:11:14.954Z,21.50
2018-01-08T20:13:43.638Z,21.70
2018-01-08T20:16:12.373Z,23.75
2018-01-08T20:18:40.824Z,23.35
2018-01-08T20:21:09.992Z,24.00
2018-01-08T20:23:38.913Z,21.62
2018-01-08T20:26:07.946Z,27.42
2018-01-08T20:28:36.350Z,21.45
2018-01-08T20:31:04.720Z,21.17
2018-01-08T20:33:34.066Z,18.95
2018-01-08T20:36:02.746Z,25.40
2018-01-08T20:38:31.323Z,24.52
2018-01-08T20:40:59.685Z,24.70
2018-01-08T20:43:28.097Z,24.70
2018-01-08T20:45:56.776Z,26.45
2018-01-08T20:48:25.428Z,18.50
2018-01-08T20:50:54.454Z,19.27
2018-01-08T20:53:24.091Z,24.27
2018-01-08T20:55:53.977Z,19.08
2018-01-08T20:58:22.395Z,21.95
2018-01-08T21:00:50.765Z,23.77
2018-01-08T21:03:19.928Z,25.42
2018-01-08T21:05:50.015Z,24.77
2018-01-08T21:08:18.733Z,21.95
2018-01-08T21:10:47.893Z,19.00
2018-01-08T21:13:16.719Z,19.87
2018-01-08T21:15:45.174Z,26.52
2018-01-08T21:18:13.534Z,22.13
2018-01-08T21:20:43.541Z,17.90
2018-01-08T21:23:12.074Z,18.30
2018-01-08T21:25:41.201Z,21.37
2018-01-08T21:28:10.055Z,21.60
2018-01-08T21:30:38.682Z,18.20
2018-01-08T21:33:07.637Z,21.75
2018-01-08T21:35:36.283Z,21.70
2018-01-08T21:38:06.032Z,27.60
2018-01-08T21:40:35.695Z,22.83
2018-01-08T21:43:04.766Z,17.73
2018-01-08T21:45:34.129Z,17.87
2018-01-08T21:48:02.822Z,22.75
2018-01-08T21:50:31.908Z,17.08
2018-01-08T21:53:01.697Z,22.77
2018-01-08T21:55:30.415Z,24.63
2018-01-08T21:57:59.206Z,15.50
2018-01-08T22:00:27.898Z,16.60
2018-01-08T22:02:56.469Z,19.10
2018-01-08T22:05:24.874Z,18.85
2018-01-08T22:07:53.360Z,20.02
2018-01-08T22:10:21.905Z,19.90
2018-01-08T22:12:50.274Z,17.10
2018-01-08T22:15:18.658Z,15.65
2018-01-08T22:17:47.081Z,19.45
2018-01-08T22:20:15.451Z,18.15
2018-01-08T22:22:45.536Z,19.87
2018-01-08T22:25:14.280Z,20.17
2018-01-08T22:27:43.601Z,25.50
2018-01-08T22:30:12.015Z,18.83
2018-01-08T22:32:40.608Z,19.37
2018-01-08T22:35:10.966Z,19.60
2018-01-08T22:37:40.238Z,19.65
2018-01-08T22:40:08.604Z,21.55
2018-01-08T22:42:37.007Z,22.45
2018-01-08T22:45:05.457Z,22.05
2018-01-08T22:47:33.849Z,27.05
2018-01-08T22:50:02.215Z,24.75
2018-01-08T22:52:30.577Z,21.20
2018-01-08T22:54:58.982Z,18.98
2018-01-08T22:57:27.415Z,20.73
2018-01-08T22:59:55.783Z,24.48
2018-01-08T23:02:24.952Z,23.60
2018-01-08T23:04:54.821Z,21.87
2018-01-08T23:07:23.231Z,25.83
2018-01-08T23:09:51.614Z,23.58
2018-01-08T23:12:19.984Z,25.45
2018-01-08T23:14:48.370Z,21.50
2018-01-08T23:17:16.746Z,21.23
2018-01-08T23:19:45.171Z,23.00
2018-01-08T23:22:14.408Z,19.83
2018-01-08T23:24:42.769Z,19.73
2018-01-08T23:27:11.156Z,19.45
2018-01-08T23:29:39.522Z,22.73
2018-01-08T23:32:08.217Z,17.90
2018-01-08T23:34:36.581Z,19.20
2018-01-08T23:37:04.988Z,17.15
2018-01-08T23:39:33.373Z,23.48
2018-01-08T23:42:01.739Z,15.38
2018-01-08T23:44:30.309Z,20.92
2018-01-08T23:47:00.340Z,16.35
2018-01-08T23:49:29.514Z,25.17
2018-01-08T23:51:58.697Z,16.35
2018-01-08T23:54:28.542Z,21.92
2018-01-08T23:56:57.009Z,18.23
2018-01-08T23:59:26.351Z,21.73
